sensor_id;sensor_type;location;lat;lon;timestamp;P1;durP1;ratioP1;P2;durP2;ratioP2
21862;SDS011;11096;51.338;12.524;2023-11-21T00:00:51;10.93;;;4.07;;
21862;SDS011;11096;51.338;12.524;2023-11-21T00:03:16;6.85;;;4.57;;
21862;SDS011;11096;51.338;12.524;2023-11-21T00:05:41;8.13;;;4.18;;
21862;SDS011;11096;51.338;12.524;2023-11-21T00:08:07;7.70;;;4.13;;
21862;SDS011;11096;51.338;12.524;2023-11-21T00:10:33;7.97;;;4.00;;
21862;SDS011;11096;51.338;12.524;2023-11-21T00:13:00;6.18;;;3.35;;
21862;SDS011;11096;51.338;12.524;2023-11-21T00:15:27;9.73;;;4.00;;
21862;SDS011;11096;51.338;12.524;2023-11-21T00:17:52;9.63;;;3.95;;
21862;SDS011;11096;51.338;12.524;2023-11-21T00:20:17;6.18;;;3.78;;
21862;SDS011;11096;51.338;12.524;2023-11-21T00:22:43;4.78;;;3.53;;
21862;SDS011;11096;51.338;12.524;2023-11-21T00:25:08;6.43;;;4.25;;
21862;SDS011;11096;51.338;12.524;2023-11-21T00:27:34;8.65;;;4.13;;
21862;SDS011;11096;51.338;12.524;2023-11-21T00:30:00;8.80;;;5.10;;
21862;SDS011;11096;51.338;12.524;2023-11-21T00:32:26;10.13;;;5.68;;
21862;SDS011;11096;51.338;12.524;2023-11-21T00:34:51;8.57;;;5.05;;
21862;SDS011;11096;51.338;12.524;2023-11-21T00:37:17;7.18;;;4.05;;
21862;SDS011;11096;51.338;12.524;2023-11-21T00:39:42;8.82;;;3.92;;
21862;SDS011;11096;51.338;12.524;2023-11-21T00:42:07;6.88;;;4.22;;
21862;SDS011;11096;51.338;12.524;2023-11-21T00:44:37;9.95;;;3.40;;
21862;SDS011;11096;51.338;12.524;2023-11-21T00:47:03;6.22;;;3.58;;
21862;SDS011;11096;51.338;12.524;2023-11-21T00:49:28;7.90;;;3.70;;
21862;SDS011;11096;51.338;12.524;2023-11-21T00:51:53;7.47;;;3.10;;
21862;SDS011;11096;51.338;12.524;2023-11-21T00:54:19;8.43;;;3.50;;
21862;SDS011;11096;51.338;12.524;2023-11-21T00:56:44;10.23;;;3.42;;
21862;SDS011;11096;51.338;12.524;2023-11-21T00:59:12;4.95;;;3.60;;
21862;SDS011;11096;51.338;12.524;2023-11-21T01:01:38;7.10;;;3.67;;
21862;SDS011;11096;51.338;12.524;2023-11-21T01:04:03;6.30;;;3.95;;
21862;SDS011;11096;51.338;12.524;2023-11-21T01:06:28;9.50;;;3.85;;
21862;SDS011;11096;51.338;12.524;2023-11-21T01:08:54;10.32;;;3.88;;
21862;SDS011;11096;51.338;12.524;2023-11-21T01:11:20;9.25;;;3.33;;
21862;SDS011;11096;51.338;12.524;2023-11-21T01:13:46;4.50;;;3.55;;
21862;SDS011;11096;51.338;12.524;2023-11-21T01:16:11;5.85;;;3.65;;
21862;SDS011;11096;51.338;12.524;2023-11-21T01:18:36;5.43;;;3.60;;
21862;SDS011;11096;51.338;12.524;2023-11-21T01:21:02;7.55;;;3.33;;
21862;SDS011;11096;51.338;12.524;2023-11-21T01:23:28;11.05;;;3.60;;
21862;SDS011;11096;51.338;12.524;2023-11-21T01:25:55;7.78;;;3.40;;
21862;SDS011;11096;51.338;12.524;2023-11-21T01:28:21;5.43;;;3.17;;
21862;SDS011;11096;51.338;12.524;2023-11-21T01:30:47;9.05;;;3.10;;
21862;SDS011;11096;51.338;12.524;2023-11-21T01:33:13;7.70;;;3.08;;
21862;SDS011;11096;51.338;12.524;2023-11-21T01:35:40;8.77;;;3.17;;
21862;SDS011;11096;51.338;12.524;2023-11-21T01:38:06;10.07;;;3.40;;
21862;SDS011;11096;51.338;12.524;2023-11-21T01:40:33;5.63;;;3.30;;
21862;SDS011;11096;51.338;12.524;2023-11-21T01:42:59;7.63;;;3.03;;
21862;SDS011;11096;51.338;12.524;2023-11-21T01:45:25;6.97;;;3.03;;
21862;SDS011;11096;51.338;12.524;2023-11-21T01:47:50;6.18;;;3.20;;
21862;SDS011;11096;51.338;12.524;2023-11-21T01:50:17;5.28;;;3.28;;
21862;SDS011;11096;51.338;12.524;2023-11-21T01:52:43;7.57;;;3.47;;
21862;SDS011;11096;51.338;12.524;2023-11-21T01:55:10;7.30;;;3.42;;
21862;SDS011;11096;51.338;12.524;2023-11-21T01:57:37;5.53;;;3.08;;
21862;SDS011;11096;51.338;12.524;2023-11-21T02:00:03;8.18;;;3.47;;
21862;SDS011;11096;51.338;12.524;2023-11-21T02:02:40;8.27;;;3.47;;
21862;SDS011;11096;51.338;12.524;2023-11-21T02:05:19;6.47;;;3.33;;
21862;SDS011;11096;51.338;12.524;2023-11-21T02:07:46;8.73;;;4.03;;
21862;SDS011;11096;51.338;12.524;2023-11-21T02:10:17;7.82;;;3.63;;
21862;SDS011;11096;51.338;12.524;2023-11-21T02:12:47;8.13;;;3.40;;
21862;SDS011;11096;51.338;12.524;2023-11-21T02:15:15;7.70;;;3.33;;
21862;SDS011;11096;51.338;12.524;2023-11-21T02:17:48;10.30;;;3.13;;
21862;SDS011;11096;51.338;12.524;2023-11-21T02:20:16;6.72;;;3.38;;
21862;SDS011;11096;51.338;12.524;2023-11-21T02:22:43;8.77;;;3.65;;
21862;SDS011;11096;51.338;12.524;2023-11-21T02:25:10;8.02;;;3.65;;
21862;SDS011;11096;51.338;12.524;2023-11-21T02:27:36;9.30;;;3.88;;
21862;SDS011;11096;51.338;12.524;2023-11-21T02:30:02;11.10;;;3.55;;
21862;SDS011;11096;51.338;12.524;2023-11-21T02:32:29;7.07;;;3.83;;
21862;SDS011;11096;51.338;12.524;2023-11-21T02:34:56;8.93;;;3.63;;
21862;SDS011;11096;51.338;12.524;2023-11-21T02:37:25;8.80;;;3.45;;
21862;SDS011;11096;51.338;12.524;2023-11-21T02:39:51;10.65;;;3.50;;
21862;SDS011;11096;51.338;12.524;2023-11-21T02:42:17;8.98;;;3.97;;
21862;SDS011;11096;51.338;12.524;2023-11-21T02:44:43;7.75;;;3.55;;
21862;SDS011;11096;51.338;12.524;2023-11-21T02:47:08;5.72;;;3.63;;
21862;SDS011;11096;51.338;12.524;2023-11-21T02:49:34;13.07;;;3.78;;
21862;SDS011;11096;51.338;12.524;2023-11-21T02:52:00;5.68;;;3.30;;
21862;SDS011;11096;51.338;12.524;2023-11-21T02:54:26;10.70;;;3.97;;
21862;SDS011;11096;51.338;12.524;2023-11-21T02:56:52;7.25;;;3.50;;
21862;SDS011;11096;51.338;12.524;2023-11-21T02:59:17;9.63;;;3.47;;
21862;SDS011;11096;51.338;12.524;2023-11-21T03:01:44;8.40;;;3.47;;
21862;SDS011;11096;51.338;12.524;2023-11-21T03:04:10;10.30;;;3.72;;
21862;SDS011;11096;51.338;12.524;2023-11-21T03:06:35;10.43;;;3.53;;
21862;SDS011;11096;51.338;12.524;2023-11-21T03:09:01;5.03;;;3.35;;
21862;SDS011;11096;51.338;12.524;2023-11-21T03:11:26;12.27;;;3.55;;
21862;SDS011;11096;51.338;12.524;2023-11-21T03:13:52;6.15;;;2.97;;
21862;SDS011;11096;51.338;12.524;2023-11-21T03:16:18;7.85;;;3.38;;
21862;SDS011;11096;51.338;12.524;2023-11-21T03:18:44;15.70;;;4.22;;
21862;SDS011;11096;51.338;12.524;2023-11-21T03:21:09;11.38;;;3.80;;
21862;SDS011;11096;51.338;12.524;2023-11-21T03:23:35;9.45;;;3.95;;
21862;SDS011;11096;51.338;12.524;2023-11-21T03:26:01;8.98;;;3.88;;
21862;SDS011;11096;51.338;12.524;2023-11-21T03:28:27;11.75;;;4.38;;
21862;SDS011;11096;51.338;12.524;2023-11-21T03:30:53;11.75;;;4.13;;
21862;SDS011;11096;51.338;12.524;2023-11-21T03:33:19;8.70;;;3.90;;
21862;SDS011;11096;51.338;12.524;2023-11-21T03:35:44;9.07;;;3.97;;
21862;SDS011;11096;51.338;12.524;2023-11-21T03:38:10;11.23;;;4.10;;
21862;SDS011;11096;51.338;12.524;2023-11-21T03:40:35;8.50;;;3.53;;
21862;SDS011;11096;51.338;12.524;2023-11-21T03:43:01;12.93;;;4.50;;
21862;SDS011;11096;51.338;12.524;2023-11-21T03:45:26;11.90;;;4.65;;
21862;SDS011;11096;51.338;12.524;2023-11-21T03:47:52;13.05;;;4.07;;
21862;SDS011;11096;51.338;12.524;2023-11-21T03:50:17;9.40;;;4.63;;
21862;SDS011;11096;51.338;12.524;2023-11-21T03:52:43;12.15;;;4.97;;
21862;SDS011;11096;51.338;12.524;2023-11-21T03:55:08;11.43;;;4.63;;
21862;SDS011;11096;51.338;12.524;2023-11-21T03:57:35;10.52;;;4.80;;
21862;SDS011;11096;51.338;12.524;2023-11-21T04:00:01;8.65;;;4.18;;
21862;SDS011;11096;51.338;12.524;2023-11-21T04:02:29;9.20;;;4.60;;
21862;SDS011;11096;51.338;12.524;2023-11-21T04:04:54;11.48;;;4.90;;
21862;SDS011;11096;51.338;12.524;2023-11-21T04:07:20;13.50;;;4.65;;
21862;SDS011;11096;51.338;12.524;2023-11-21T04:09:46;10.23;;;4.47;;
21862;SDS011;11096;51.338;12.524;2023-11-21T04:12:12;7.95;;;3.92;;
21862;SDS011;11096;51.338;12.524;2023-11-21T04:14:37;9.70;;;4.30;;
21862;SDS011;11096;51.338;12.524;2023-11-21T04:17:03;8.98;;;4.03;;
21862;SDS011;11096;51.338;12.524;2023-11-21T04:19:29;8.30;;;3.88;;
21862;SDS011;11096;51.338;12.524;2023-11-21T04:21:54;9.32;;;4.22;;
21862;SDS011;11096;51.338;12.524;2023-11-21T04:24:20;8.10;;;4.22;;
21862;SDS011;11096;51.338;12.524;2023-11-21T04:26:45;12.50;;;4.95;;
21862;SDS011;11096;51.338;12.524;2023-11-21T04:29:11;9.10;;;5.60;;
21862;SDS011;11096;51.338;12.524;2023-11-21T04:31:37;9.35;;;5.03;;
21862;SDS011;11096;51.338;12.524;2023-11-21T04:34:02;11.57;;;4.47;;
21862;SDS011;11096;51.338;12.524;2023-11-21T04:36:29;12.15;;;4.45;;
21862;SDS011;11096;51.338;12.524;2023-11-21T04:38:55;12.07;;;5.07;;
21862;SDS011;11096;51.338;12.524;2023-11-21T04:41:21;10.57;;;4.57;;
21862;SDS011;11096;51.338;12.524;2023-11-21T04:43:46;9.93;;;4.75;;
21862;SDS011;11096;51.338;12.524;2023-11-21T04:46:12;13.45;;;5.15;;
21862;SDS011;11096;51.338;12.524;2023-11-21T04:48:37;10.65;;;4.53;;
21862;SDS011;11096;51.338;12.524;2023-11-21T04:51:03;8.98;;;4.28;;
21862;SDS011;11096;51.338;12.524;2023-11-21T04:53:29;11.85;;;4.88;;
21862;SDS011;11096;51.338;12.524;2023-11-21T04:55:55;11.43;;;4.88;;
21862;SDS011;11096;51.338;12.524;2023-11-21T04:58:20;15.77;;;5.13;;
21862;SDS011;11096;51.338;12.524;2023-11-21T05:00:46;12.10;;;4.45;;
21862;SDS011;11096;51.338;12.524;2023-11-21T05:03:11;9.57;;;4.53;;
21862;SDS011;11096;51.338;12.524;2023-11-21T05:05:37;10.95;;;4.93;;
21862;SDS011;11096;51.338;12.524;2023-11-21T05:08:02;10.50;;;4.82;;
21862;SDS011;11096;51.338;12.524;2023-11-21T05:10:28;15.30;;;5.20;;
21862;SDS011;11096;51.338;12.524;2023-11-21T05:12:54;14.27;;;5.45;;
21862;SDS011;11096;51.338;12.524;2023-11-21T05:15:20;10.77;;;4.63;;
21862;SDS011;11096;51.338;12.524;2023-11-21T05:17:46;8.77;;;4.93;;
21862;SDS011;11096;51.338;12.524;2023-11-21T05:20:14;10.70;;;5.15;;
21862;SDS011;11096;51.338;12.524;2023-11-21T05:22:46;10.95;;;4.90;;
21862;SDS011;11096;51.338;12.524;2023-11-21T05:25:13;12.25;;;5.22;;
21862;SDS011;11096;51.338;12.524;2023-11-21T05:27:39;12.25;;;5.50;;
21862;SDS011;11096;51.338;12.524;2023-11-21T05:30:04;14.00;;;4.78;;
21862;SDS011;11096;51.338;12.524;2023-11-21T05:32:31;13.25;;;6.40;;
21862;SDS011;11096;51.338;12.524;2023-11-21T05:34:56;10.95;;;5.43;;
21862;SDS011;11096;51.338;12.524;2023-11-21T05:37:22;12.32;;;6.05;;
21862;SDS011;11096;51.338;12.524;2023-11-21T05:39:48;14.45;;;6.35;;
21862;SDS011;11096;51.338;12.524;2023-11-21T05:42:14;17.40;;;6.38;;
21862;SDS011;11096;51.338;12.524;2023-11-21T05:44:41;13.13;;;5.85;;
21862;SDS011;11096;51.338;12.524;2023-11-21T05:47:08;17.35;;;5.85;;
21862;SDS011;11096;51.338;12.524;2023-11-21T05:49:33;14.40;;;7.43;;
21862;SDS011;11096;51.338;12.524;2023-11-21T05:51:59;21.70;;;11.30;;
21862;SDS011;11096;51.338;12.524;2023-11-21T05:54:25;26.30;;;14.27;;
21862;SDS011;11096;51.338;12.524;2023-11-21T05:56:51;19.30;;;9.93;;
21862;SDS011;11096;51.338;12.524;2023-11-21T05:59:16;19.95;;;9.27;;
21862;SDS011;11096;51.338;12.524;2023-11-21T06:01:41;19.75;;;7.93;;
21862;SDS011;11096;51.338;12.524;2023-11-21T06:04:07;20.38;;;7.63;;
21862;SDS011;11096;51.338;12.524;2023-11-21T06:06:35;14.88;;;6.72;;
21862;SDS011;11096;51.338;12.524;2023-11-21T06:09:01;16.70;;;7.15;;
21862;SDS011;11096;51.338;12.524;2023-11-21T06:11:27;35.50;;;8.85;;
21862;SDS011;11096;51.338;12.524;2023-11-21T06:13:52;16.50;;;6.80;;
21862;SDS011;11096;51.338;12.524;2023-11-21T06:16:20;21.88;;;8.20;;
21862;SDS011;11096;51.338;12.524;2023-11-21T06:18:46;17.83;;;7.50;;
21862;SDS011;11096;51.338;12.524;2023-11-21T06:21:11;18.02;;;7.80;;
21862;SDS011;11096;51.338;12.524;2023-11-21T06:23:37;17.90;;;8.65;;
21862;SDS011;11096;51.338;12.524;2023-11-21T06:26:03;19.92;;;8.00;;
21862;SDS011;11096;51.338;12.524;2023-11-21T06:28:29;21.05;;;8.88;;
21862;SDS011;11096;51.338;12.524;2023-11-21T06:30:55;23.15;;;9.00;;
21862;SDS011;11096;51.338;12.524;2023-11-21T06:33:23;22.48;;;8.95;;
21862;SDS011;11096;51.338;12.524;2023-11-21T06:35:48;24.10;;;9.30;;
21862;SDS011;11096;51.338;12.524;2023-11-21T06:38:14;23.98;;;8.10;;
21862;SDS011;11096;51.338;12.524;2023-11-21T06:40:40;28.42;;;11.68;;
21862;SDS011;11096;51.338;12.524;2023-11-21T06:43:05;28.00;;;10.40;;
21862;SDS011;11096;51.338;12.524;2023-11-21T06:45:32;23.17;;;10.52;;
21862;SDS011;11096;51.338;12.524;2023-11-21T06:47:59;25.98;;;9.80;;
21862;SDS011;11096;51.338;12.524;2023-11-21T06:50:25;27.00;;;11.45;;
21862;SDS011;11096;51.338;12.524;2023-11-21T06:52:50;29.77;;;11.82;;
21862;SDS011;11096;51.338;12.524;2023-11-21T06:55:16;29.20;;;11.38;;
21862;SDS011;11096;51.338;12.524;2023-11-21T06:57:41;30.55;;;11.60;;
21862;SDS011;11096;51.338;12.524;2023-11-21T07:00:08;24.13;;;10.25;;
21862;SDS011;11096;51.338;12.524;2023-11-21T07:02:34;24.42;;;10.65;;
21862;SDS011;11096;51.338;12.524;2023-11-21T07:04:59;29.73;;;11.45;;
21862;SDS011;11096;51.338;12.524;2023-11-21T07:07:25;29.08;;;12.23;;
21862;SDS011;11096;51.338;12.524;2023-11-21T07:09:50;30.45;;;12.75;;
21862;SDS011;11096;51.338;12.524;2023-11-21T07:12:17;31.30;;;13.60;;
21862;SDS011;11096;51.338;12.524;2023-11-21T07:14:42;30.15;;;12.43;;
21862;SDS011;11096;51.338;12.524;2023-11-21T07:17:10;29.88;;;12.63;;
21862;SDS011;11096;51.338;12.524;2023-11-21T07:19:37;25.23;;;12.48;;
21862;SDS011;11096;51.338;12.524;2023-11-21T07:22:03;33.70;;;12.77;;
21862;SDS011;11096;51.338;12.524;2023-11-21T07:24:28;32.60;;;13.70;;
21862;SDS011;11096;51.338;12.524;2023-11-21T07:26:53;27.52;;;12.60;;
21862;SDS011;11096;51.338;12.524;2023-11-21T07:29:21;27.30;;;13.07;;
21862;SDS011;11096;51.338;12.524;2023-11-21T07:31:48;34.22;;;13.43;;
21862;SDS011;11096;51.338;12.524;2023-11-21T07:34:13;35.65;;;13.80;;
21862;SDS011;11096;51.338;12.524;2023-11-21T07:36:39;31.58;;;13.93;;
21862;SDS011;11096;51.338;12.524;2023-11-21T07:39:04;31.15;;;14.07;;
21862;SDS011;11096;51.338;12.524;2023-11-21T07:41:31;41.85;;;15.02;;
21862;SDS011;11096;51.338;12.524;2023-11-21T07:43:57;43.65;;;17.50;;
21862;SDS011;11096;51.338;12.524;2023-11-21T07:46:22;47.50;;;19.52;;
21862;SDS011;11096;51.338;12.524;2023-11-21T07:48:49;54.95;;;22.83;;
21862;SDS011;11096;51.338;12.524;2023-11-21T07:51:15;56.80;;;21.88;;
21862;SDS011;11096;51.338;12.524;2023-11-21T07:53:41;58.03;;;21.77;;
21862;SDS011;11096;51.338;12.524;2023-11-21T07:56:07;55.58;;;22.98;;
21862;SDS011;11096;51.338;12.524;2023-11-21T07:58:34;60.28;;;22.98;;
21862;SDS011;11096;51.338;12.524;2023-11-21T08:01:00;59.00;;;24.50;;
21862;SDS011;11096;51.338;12.524;2023-11-21T08:03:26;39.33;;;17.80;;
21862;SDS011;11096;51.338;12.524;2023-11-21T08:05:52;33.95;;;14.70;;
21862;SDS011;11096;51.338;12.524;2023-11-21T08:08:17;23.48;;;11.52;;
21862;SDS011;11096;51.338;12.524;2023-11-21T08:10:43;19.45;;;9.00;;
21862;SDS011;11096;51.338;12.524;2023-11-21T08:13:19;16.30;;;9.45;;
21862;SDS011;11096;51.338;12.524;2023-11-21T08:15:44;17.42;;;9.23;;
21862;SDS011;11096;51.338;12.524;2023-11-21T08:18:11;18.60;;;9.07;;
21862;SDS011;11096;51.338;12.524;2023-11-21T08:20:37;17.90;;;9.43;;
21862;SDS011;11096;51.338;12.524;2023-11-21T08:23:04;16.35;;;9.98;;
21862;SDS011;11096;51.338;12.524;2023-11-21T08:25:31;23.33;;;9.95;;
21862;SDS011;11096;51.338;12.524;2023-11-21T08:27:57;19.15;;;9.55;;
21862;SDS011;11096;51.338;12.524;2023-11-21T08:30:22;17.27;;;8.65;;
21862;SDS011;11096;51.338;12.524;2023-11-21T08:32:49;15.68;;;8.68;;
21862;SDS011;11096;51.338;12.524;2023-11-21T08:35:17;15.63;;;8.60;;
21862;SDS011;11096;51.338;12.524;2023-11-21T08:37:42;16.00;;;8.63;;
21862;SDS011;11096;51.338;12.524;2023-11-21T08:40:08;14.05;;;8.60;;
21862;SDS011;11096;51.338;12.524;2023-11-21T08:42:41;12.55;;;7.90;;
21862;SDS011;11096;51.338;12.524;2023-11-21T08:45:07;14.27;;;8.13;;
21862;SDS011;11096;51.338;12.524;2023-11-21T08:47:34;15.85;;;8.23;;
21862;SDS011;11096;51.338;12.524;2023-11-21T08:50:01;14.07;;;8.32;;
21862;SDS011;11096;51.338;12.524;2023-11-21T08:52:27;15.20;;;8.85;;
21862;SDS011;11096;51.338;12.524;2023-11-21T08:54:52;18.23;;;9.82;;
21862;SDS011;11096;51.338;12.524;2023-11-21T08:57:23;17.13;;;9.23;;
21862;SDS011;11096;51.338;12.524;2023-11-21T08:59:50;18.77;;;10.05;;
21862;SDS011;11096;51.338;12.524;2023-11-21T09:02:23;19.85;;;10.07;;
21862;SDS011;11096;51.338;12.524;2023-11-21T09:04:51;21.27;;;9.77;;
21862;SDS011;11096;51.338;12.524;2023-11-21T09:07:17;25.50;;;10.63;;
21862;SDS011;11096;51.338;12.524;2023-11-21T09:09:45;23.30;;;10.75;;
21862;SDS011;11096;51.338;12.524;2023-11-21T09:12:11;23.95;;;10.60;;
21862;SDS011;11096;51.338;12.524;2023-11-21T09:14:37;27.60;;;10.73;;
21862;SDS011;11096;51.338;12.524;2023-11-21T09:17:03;25.55;;;11.15;;
21862;SDS011;11096;51.338;12.524;2023-11-21T09:19:28;25.63;;;11.68;;
21862;SDS011;11096;51.338;12.524;2023-11-21T09:21:54;28.85;;;11.75;;
21862;SDS011;11096;51.338;12.524;2023-11-21T09:24:19;33.20;;;11.52;;
21862;SDS011;11096;51.338;12.524;2023-11-21T09:26:45;27.90;;;12.00;;
21862;SDS011;11096;51.338;12.524;2023-11-21T09:29:10;24.33;;;11.20;;
21862;SDS011;11096;51.338;12.524;2023-11-21T09:31:36;32.38;;;12.18;;
21862;SDS011;11096;51.338;12.524;2023-11-21T09:34:01;26.48;;;11.77;;
21862;SDS011;11096;51.338;12.524;2023-11-21T09:36:27;22.48;;;11.20;;
21862;SDS011;11096;51.338;12.524;2023-11-21T09:38:55;28.63;;;10.32;;
21862;SDS011;11096;51.338;12.524;2023-11-21T09:41:28;31.17;;;10.75;;
21862;SDS011;11096;51.338;12.524;2023-11-21T09:44:00;23.45;;;10.02;;
21862;SDS011;11096;51.338;12.524;2023-11-21T09:46:29;19.90;;;9.55;;
21862;SDS011;11096;51.338;12.524;2023-11-21T09:48:55;22.48;;;10.35;;
21862;SDS011;11096;51.338;12.524;2023-11-21T09:51:25;22.73;;;9.73;;
21862;SDS011;11096;51.338;12.524;2023-11-21T09:53:55;18.55;;;9.20;;
21862;SDS011;11096;51.338;12.524;2023-11-21T09:56:24;20.38;;;9.55;;
21862;SDS011;11096;51.338;12.524;2023-11-21T09:58:52;15.10;;;8.82;;
21862;SDS011;11096;51.338;12.524;2023-11-21T10:01:18;17.80;;;9.25;;
21862;SDS011;11096;51.338;12.524;2023-11-21T10:03:45;23.23;;;10.38;;
21862;SDS011;11096;51.338;12.524;2023-11-21T10:06:13;14.40;;;8.98;;
21862;SDS011;11096;51.338;12.524;2023-11-21T10:08:39;17.45;;;9.60;;
21862;SDS011;11096;51.338;12.524;2023-11-21T10:11:05;20.73;;;9.70;;
21862;SDS011;11096;51.338;12.524;2023-11-21T10:13:33;17.65;;;9.95;;
21862;SDS011;11096;51.338;12.524;2023-11-21T10:16:00;20.10;;;9.93;;
21862;SDS011;11096;51.338;12.524;2023-11-21T10:18:25;14.85;;;9.25;;
21862;SDS011;11096;51.338;12.524;2023-11-21T10:20:51;17.02;;;9.88;;
21862;SDS011;11096;51.338;12.524;2023-11-21T10:23:21;16.90;;;10.35;;
21862;SDS011;11096;51.338;12.524;2023-11-21T10:25:47;12.82;;;8.93;;
21862;SDS011;11096;51.338;12.524;2023-11-21T10:28:14;15.43;;;9.20;;
21862;SDS011;11096;51.338;12.524;2023-11-21T10:30:40;18.25;;;10.27;;
21862;SDS011;11096;51.338;12.524;2023-11-21T10:33:06;17.95;;;9.93;;
21862;SDS011;11096;51.338;12.524;2023-11-21T10:35:46;20.75;;;10.10;;
21862;SDS011;11096;51.338;12.524;2023-11-21T10:38:13;18.20;;;10.48;;
21862;SDS011;11096;51.338;12.524;2023-11-21T10:40:42;18.08;;;11.32;;
21862;SDS011;11096;51.338;12.524;2023-11-21T10:43:11;19.88;;;10.73;;
21862;SDS011;11096;51.338;12.524;2023-11-21T10:45:38;18.52;;;10.95;;
21862;SDS011;11096;51.338;12.524;2023-11-21T10:48:07;23.40;;;12.38;;
21862;SDS011;11096;51.338;12.524;2023-11-21T10:50:35;30.42;;;14.13;;
21862;SDS011;11096;51.338;12.524;2023-11-21T10:53:05;30.70;;;16.42;;
21862;SDS011;11096;51.338;12.524;2023-11-21T10:55:31;31.80;;;16.17;;
21862;SDS011;11096;51.338;12.524;2023-11-21T10:58:04;30.13;;;16.10;;
21862;SDS011;11096;51.338;12.524;2023-11-21T11:00:31;33.15;;;16.70;;
21862;SDS011;11096;51.338;12.524;2023-11-21T11:02:57;32.90;;;17.17;;
21862;SDS011;11096;51.338;12.524;2023-11-21T11:05:24;38.92;;;18.33;;
21862;SDS011;11096;51.338;12.524;2023-11-21T11:10:27;31.13;;;16.02;;
21862;SDS011;11096;51.338;12.524;2023-11-21T11:12:57;32.28;;;17.05;;
21862;SDS011;11096;51.338;12.524;2023-11-21T11:15:23;35.42;;;17.15;;
21862;SDS011;11096;51.338;12.524;2023-11-21T11:17:49;32.35;;;15.23;;
21862;SDS011;11096;51.338;12.524;2023-11-21T11:20:15;31.13;;;16.55;;
21862;SDS011;11096;51.338;12.524;2023-11-21T11:27:54;28.52;;;15.73;;
21862;SDS011;11096;51.338;12.524;2023-11-21T11:33:41;37.55;;;19.33;;
21862;SDS011;11096;51.338;12.524;2023-11-21T11:36:16;33.33;;;16.80;;
21862;SDS011;11096;51.338;12.524;2023-11-21T11:38:47;32.50;;;16.55;;
21862;SDS011;11096;51.338;12.524;2023-11-21T11:41:24;30.92;;;15.85;;
21862;SDS011;11096;51.338;12.524;2023-11-21T11:43:54;30.27;;;16.30;;
21862;SDS011;11096;51.338;12.524;2023-11-21T11:46:20;32.15;;;15.77;;
21862;SDS011;11096;51.338;12.524;2023-11-21T11:48:46;27.95;;;14.25;;
21862;SDS011;11096;51.338;12.524;2023-11-21T11:51:14;25.80;;;14.05;;
21862;SDS011;11096;51.338;12.524;2023-11-21T11:53:42;23.20;;;12.65;;
21862;SDS011;11096;51.338;12.524;2023-11-21T11:58:59;23.55;;;12.20;;
21862;SDS011;11096;51.338;12.524;2023-11-21T12:01:27;24.55;;;10.60;;
21862;SDS011;11096;51.338;12.524;2023-11-21T12:07:04;20.77;;;11.85;;
21862;SDS011;11096;51.338;12.524;2023-11-21T12:09:30;24.33;;;12.00;;
21862;SDS011;11096;51.338;12.524;2023-11-21T12:11:57;18.60;;;10.52;;
21862;SDS011;11096;51.338;12.524;2023-11-21T12:14:22;21.20;;;10.68;;
21862;SDS011;11096;51.338;12.524;2023-11-21T12:16:48;18.48;;;10.50;;
21862;SDS011;11096;51.338;12.524;2023-11-21T12:19:14;15.27;;;9.73;;
21862;SDS011;11096;51.338;12.524;2023-11-21T12:21:40;15.07;;;9.20;;
21862;SDS011;11096;51.338;12.524;2023-11-21T12:24:13;17.00;;;9.32;;
21862;SDS011;11096;51.338;12.524;2023-11-21T12:26:39;15.65;;;8.93;;
21862;SDS011;11096;51.338;12.524;2023-11-21T12:29:05;12.15;;;8.32;;
21862;SDS011;11096;51.338;12.524;2023-11-21T12:31:32;14.63;;;8.35;;
21862;SDS011;11096;51.338;12.524;2023-11-21T12:33:59;16.27;;;9.35;;
21862;SDS011;11096;51.338;12.524;2023-11-21T12:36:25;17.77;;;9.95;;
21862;SDS011;11096;51.338;12.524;2023-11-21T12:38:51;18.85;;;10.32;;
21862;SDS011;11096;51.338;12.524;2023-11-21T12:41:16;18.77;;;10.07;;
21862;SDS011;11096;51.338;12.524;2023-11-21T12:43:46;20.45;;;11.02;;
21862;SDS011;11096;51.338;12.524;2023-11-21T12:46:12;19.95;;;10.75;;
21862;SDS011;11096;51.338;12.524;2023-11-21T12:48:43;28.55;;;11.60;;
21862;SDS011;11096;51.338;12.524;2023-11-21T12:51:10;17.35;;;10.35;;
21862;SDS011;11096;51.338;12.524;2023-11-21T12:53:37;18.42;;;10.27;;
21862;SDS011;11096;51.338;12.524;2023-11-21T12:56:21;20.70;;;10.80;;
21862;SDS011;11096;51.338;12.524;2023-11-21T12:58:50;18.73;;;10.50;;
21862;SDS011;11096;51.338;12.524;2023-11-21T13:01:19;19.30;;;11.15;;
21862;SDS011;11096;51.338;12.524;2023-11-21T13:03:47;20.58;;;10.80;;
21862;SDS011;11096;51.338;12.524;2023-11-21T13:06:14;21.27;;;11.00;;
21862;SDS011;11096;51.338;12.524;2023-11-21T13:08:43;23.20;;;11.77;;
21862;SDS011;11096;51.338;12.524;2023-11-21T13:11:09;22.27;;;11.75;;
21862;SDS011;11096;51.338;12.524;2023-11-21T13:13:35;22.50;;;11.20;;
21862;SDS011;11096;51.338;12.524;2023-11-21T13:16:01;22.13;;;11.38;;
21862;SDS011;11096;51.338;12.524;2023-11-21T13:18:30;32.17;;;13.20;;
21862;SDS011;11096;51.338;12.524;2023-11-21T13:20:57;20.33;;;10.20;;
21862;SDS011;11096;51.338;12.524;2023-11-21T13:23:23;19.02;;;10.10;;
21862;SDS011;11096;51.338;12.524;2023-11-21T13:25:50;19.05;;;10.07;;
21862;SDS011;11096;51.338;12.524;2023-11-21T13:28:16;18.70;;;10.45;;
21862;SDS011;11096;51.338;12.524;2023-11-21T13:30:43;19.55;;;11.23;;
21862;SDS011;11096;51.338;12.524;2023-11-21T13:33:09;21.05;;;10.57;;
21862;SDS011;11096;51.338;12.524;2023-11-21T13:35:42;19.63;;;10.70;;
21862;SDS011;11096;51.338;12.524;2023-11-21T13:38:16;26.05;;;12.50;;
21862;SDS011;11096;51.338;12.524;2023-11-21T13:40:49;22.45;;;13.45;;
21862;SDS011;11096;51.338;12.524;2023-11-21T13:43:19;24.00;;;12.15;;
21862;SDS011;11096;51.338;12.524;2023-11-21T13:45:49;19.85;;;11.02;;
21862;SDS011;11096;51.338;12.524;2023-11-21T13:48:23;17.70;;;10.70;;
21862;SDS011;11096;51.338;12.524;2023-11-21T13:50:56;18.70;;;10.57;;
21862;SDS011;11096;51.338;12.524;2023-11-21T13:53:33;17.33;;;9.63;;
21862;SDS011;11096;51.338;12.524;2023-11-21T13:56:02;16.45;;;9.05;;
21862;SDS011;11096;51.338;12.524;2023-11-21T13:58:28;15.80;;;8.98;;
21862;SDS011;11096;51.338;12.524;2023-11-21T14:01:16;17.20;;;8.93;;
21862;SDS011;11096;51.338;12.524;2023-11-21T14:03:55;14.68;;;8.50;;
21862;SDS011;11096;51.338;12.524;2023-11-21T14:06:27;15.80;;;9.55;;
21862;SDS011;11096;51.338;12.524;2023-11-21T14:08:59;12.18;;;7.82;;
21862;SDS011;11096;51.338;12.524;2023-11-21T14:11:30;13.00;;;7.18;;
21862;SDS011;11096;51.338;12.524;2023-11-21T14:13:56;12.63;;;7.28;;
21862;SDS011;11096;51.338;12.524;2023-11-21T14:16:24;10.43;;;6.80;;
21862;SDS011;11096;51.338;12.524;2023-11-21T14:18:49;16.30;;;6.88;;
21862;SDS011;11096;51.338;12.524;2023-11-21T14:21:23;12.07;;;6.28;;
21862;SDS011;11096;51.338;12.524;2023-11-21T14:23:49;15.75;;;9.18;;
21862;SDS011;11096;51.338;12.524;2023-11-21T14:26:15;15.75;;;8.55;;
21862;SDS011;11096;51.338;12.524;2023-11-21T14:28:41;16.75;;;7.82;;
21862;SDS011;11096;51.338;12.524;2023-11-21T14:31:07;11.40;;;7.70;;
21862;SDS011;11096;51.338;12.524;2023-11-21T14:33:38;15.75;;;8.68;;
21862;SDS011;11096;51.338;12.524;2023-11-21T14:36:04;11.48;;;6.80;;